Terminal Aerodrome Forecast
Issued by NWS

Home | Current Version | Previous Version | Text Only | Print | Product List | Glossary Off
Versions: 1 2 3 4 5 6 7 8 9 10 11 12 13 14 15 16 17 18 19 20 21 22 23 24 25 26 27 28 29

087
FTUS43 KGRB 160400 AAA
TAFRHI
TAF AMD
KRHI 160400Z 1604/1624 33006KT P6SM OVC100
     FM160900 30009KT P6SM SCT030
     FM161500 26010G17KT P6SM SKC=

USA.gov is the U.S. government's official web portal to all federal, state and local government web resources and services.